sensor_id;sensor_type;location;lat;lon;timestamp;P1;durP1;ratioP1;P2;durP2;ratioP2
17864;SDS011;9058;52.018;4.202;2024-02-16T00:01:04;18.92;;;17.90;;
17864;SDS011;9058;52.018;4.202;2024-02-16T00:03:37;17.50;;;16.40;;
17864;SDS011;9058;52.018;4.202;2024-02-16T00:06:03;17.00;;;16.10;;
17864;SDS011;9058;52.018;4.202;2024-02-16T00:08:30;17.83;;;16.67;;
17864;SDS011;9058;52.018;4.202;2024-02-16T00:11:01;19.63;;;18.52;;
17864;SDS011;9058;52.018;4.202;2024-02-16T00:13:28;18.85;;;17.67;;
17864;SDS011;9058;52.018;4.202;2024-02-16T00:15:54;19.58;;;18.58;;
17864;SDS011;9058;52.018;4.202;2024-02-16T00:18:21;19.27;;;18.10;;
17864;SDS011;9058;52.018;4.202;2024-02-16T00:20:47;19.35;;;18.30;;
17864;SDS011;9058;52.018;4.202;2024-02-16T00:23:14;18.67;;;17.67;;
17864;SDS011;9058;52.018;4.202;2024-02-16T00:25:41;17.35;;;16.27;;
17864;SDS011;9058;52.018;4.202;2024-02-16T00:28:10;18.55;;;17.50;;
17864;SDS011;9058;52.018;4.202;2024-02-16T00:30:37;18.58;;;17.52;;
17864;SDS011;9058;52.018;4.202;2024-02-16T00:33:06;19.23;;;18.02;;
17864;SDS011;9058;52.018;4.202;2024-02-16T00:35:33;16.48;;;15.55;;
17864;SDS011;9058;52.018;4.202;2024-02-16T00:37:59;17.30;;;16.23;;
17864;SDS011;9058;52.018;4.202;2024-02-16T00:40:26;18.00;;;17.00;;
17864;SDS011;9058;52.018;4.202;2024-02-16T00:42:52;19.63;;;18.50;;
17864;SDS011;9058;52.018;4.202;2024-02-16T00:45:20;17.60;;;16.67;;
17864;SDS011;9058;52.018;4.202;2024-02-16T00:47:46;17.80;;;16.80;;
17864;SDS011;9058;52.018;4.202;2024-02-16T00:50:14;19.75;;;18.55;;
17864;SDS011;9058;52.018;4.202;2024-02-16T00:52:40;16.00;;;15.18;;
17864;SDS011;9058;52.018;4.202;2024-02-16T00:55:09;17.13;;;16.15;;
17864;SDS011;9058;52.018;4.202;2024-02-16T00:57:36;18.27;;;17.08;;
17864;SDS011;9058;52.018;4.202;2024-02-16T01:00:03;19.33;;;18.13;;
17864;SDS011;9058;52.018;4.202;2024-02-16T01:02:32;18.38;;;17.00;;
17864;SDS011;9058;52.018;4.202;2024-02-16T01:04:58;16.15;;;15.00;;
17864;SDS011;9058;52.018;4.202;2024-02-16T01:07:27;17.52;;;16.48;;
17864;SDS011;9058;52.018;4.202;2024-02-16T01:09:53;17.63;;;16.58;;
17864;SDS011;9058;52.018;4.202;2024-02-16T01:12:21;16.80;;;15.85;;
17864;SDS011;9058;52.018;4.202;2024-02-16T01:14:47;16.80;;;16.00;;
17864;SDS011;9058;52.018;4.202;2024-02-16T01:17:14;19.30;;;18.00;;
17864;SDS011;9058;52.018;4.202;2024-02-16T01:19:41;19.25;;;17.85;;
17864;SDS011;9058;52.018;4.202;2024-02-16T01:22:08;17.58;;;16.48;;
17864;SDS011;9058;52.018;4.202;2024-02-16T01:24:34;16.95;;;15.82;;
17864;SDS011;9058;52.018;4.202;2024-02-16T01:27:02;18.17;;;17.17;;
17864;SDS011;9058;52.018;4.202;2024-02-16T01:29:28;18.40;;;17.30;;
17864;SDS011;9058;52.018;4.202;2024-02-16T01:31:55;18.65;;;17.38;;
17864;SDS011;9058;52.018;4.202;2024-02-16T01:34:21;20.58;;;19.27;;
17864;SDS011;9058;52.018;4.202;2024-02-16T01:36:49;19.60;;;18.45;;
17864;SDS011;9058;52.018;4.202;2024-02-16T01:39:16;19.17;;;18.05;;
17864;SDS011;9058;52.018;4.202;2024-02-16T01:41:42;18.67;;;17.50;;
17864;SDS011;9058;52.018;4.202;2024-02-16T01:44:08;19.50;;;18.30;;
17864;SDS011;9058;52.018;4.202;2024-02-16T01:46:35;19.55;;;18.48;;
17864;SDS011;9058;52.018;4.202;2024-02-16T01:49:01;17.58;;;16.48;;
17864;SDS011;9058;52.018;4.202;2024-02-16T01:51:29;19.45;;;18.45;;
17864;SDS011;9058;52.018;4.202;2024-02-16T01:53:56;19.92;;;18.73;;
17864;SDS011;9058;52.018;4.202;2024-02-16T01:56:23;19.15;;;18.05;;
17864;SDS011;9058;52.018;4.202;2024-02-16T01:58:51;20.88;;;19.40;;
17864;SDS011;9058;52.018;4.202;2024-02-16T02:01:18;19.90;;;18.80;;
17864;SDS011;9058;52.018;4.202;2024-02-16T02:03:44;18.20;;;17.20;;
17864;SDS011;9058;52.018;4.202;2024-02-16T02:06:10;22.95;;;21.75;;
17864;SDS011;9058;52.018;4.202;2024-02-16T02:08:37;19.92;;;18.73;;
17864;SDS011;9058;52.018;4.202;2024-02-16T02:11:05;20.48;;;19.27;;
17864;SDS011;9058;52.018;4.202;2024-02-16T02:13:32;20.45;;;19.15;;
17864;SDS011;9058;52.018;4.202;2024-02-16T02:15:58;20.40;;;19.30;;
17864;SDS011;9058;52.018;4.202;2024-02-16T02:18:25;19.60;;;18.48;;
17864;SDS011;9058;52.018;4.202;2024-02-16T02:20:51;18.83;;;17.70;;
17864;SDS011;9058;52.018;4.202;2024-02-16T02:23:20;18.65;;;17.58;;
17864;SDS011;9058;52.018;4.202;2024-02-16T02:25:46;18.77;;;17.67;;
17864;SDS011;9058;52.018;4.202;2024-02-16T02:28:14;19.90;;;18.60;;
17864;SDS011;9058;52.018;4.202;2024-02-16T02:30:40;20.30;;;19.08;;
17864;SDS011;9058;52.018;4.202;2024-02-16T02:33:07;19.70;;;18.42;;
17864;SDS011;9058;52.018;4.202;2024-02-16T02:35:34;22.60;;;20.67;;
17864;SDS011;9058;52.018;4.202;2024-02-16T02:38:00;18.92;;;17.65;;
17864;SDS011;9058;52.018;4.202;2024-02-16T02:40:29;20.95;;;19.75;;
17864;SDS011;9058;52.018;4.202;2024-02-16T02:42:55;21.00;;;19.60;;
17864;SDS011;9058;52.018;4.202;2024-02-16T02:45:21;19.48;;;18.23;;
17864;SDS011;9058;52.018;4.202;2024-02-16T02:47:48;19.08;;;17.98;;
17864;SDS011;9058;52.018;4.202;2024-02-16T02:50:14;19.42;;;18.38;;
17864;SDS011;9058;52.018;4.202;2024-02-16T02:52:40;16.35;;;15.38;;
17864;SDS011;9058;52.018;4.202;2024-02-16T02:55:07;18.08;;;17.08;;
17864;SDS011;9058;52.018;4.202;2024-02-16T02:57:36;18.60;;;17.40;;
17864;SDS011;9058;52.018;4.202;2024-02-16T03:00:03;20.42;;;19.30;;
17864;SDS011;9058;52.018;4.202;2024-02-16T03:02:32;18.60;;;17.17;;
17864;SDS011;9058;52.018;4.202;2024-02-16T03:05:00;18.20;;;17.10;;
17864;SDS011;9058;52.018;4.202;2024-02-16T03:07:26;17.08;;;16.15;;
17864;SDS011;9058;52.018;4.202;2024-02-16T03:09:52;16.70;;;15.80;;
17864;SDS011;9058;52.018;4.202;2024-02-16T03:12:19;16.42;;;15.23;;
17864;SDS011;9058;52.018;4.202;2024-02-16T03:14:46;17.80;;;16.77;;
17864;SDS011;9058;52.018;4.202;2024-02-16T03:17:13;16.80;;;15.57;;
17864;SDS011;9058;52.018;4.202;2024-02-16T03:19:39;18.33;;;17.33;;
17864;SDS011;9058;52.018;4.202;2024-02-16T03:22:07;17.23;;;16.13;;
17864;SDS011;9058;52.018;4.202;2024-02-16T03:24:33;16.83;;;15.82;;
17864;SDS011;9058;52.018;4.202;2024-02-16T03:26:59;17.92;;;16.92;;
17864;SDS011;9058;52.018;4.202;2024-02-16T03:29:27;17.05;;;16.05;;
17864;SDS011;9058;52.018;4.202;2024-02-16T03:31:54;17.58;;;16.48;;
17864;SDS011;9058;52.018;4.202;2024-02-16T03:34:21;18.52;;;17.42;;
17864;SDS011;9058;52.018;4.202;2024-02-16T03:36:47;19.27;;;18.20;;
17864;SDS011;9058;52.018;4.202;2024-02-16T03:39:13;18.35;;;17.25;;
17864;SDS011;9058;52.018;4.202;2024-02-16T03:41:45;17.02;;;16.10;;
17864;SDS011;9058;52.018;4.202;2024-02-16T03:44:13;19.60;;;18.00;;
17864;SDS011;9058;52.018;4.202;2024-02-16T03:46:40;19.30;;;18.30;;
17864;SDS011;9058;52.018;4.202;2024-02-16T03:49:09;16.60;;;15.55;;
17864;SDS011;9058;52.018;4.202;2024-02-16T03:51:36;18.90;;;17.73;;
17864;SDS011;9058;52.018;4.202;2024-02-16T03:54:03;19.98;;;18.77;;
17864;SDS011;9058;52.018;4.202;2024-02-16T03:56:30;20.17;;;18.85;;
17864;SDS011;9058;52.018;4.202;2024-02-16T03:58:56;18.52;;;17.25;;
17864;SDS011;9058;52.018;4.202;2024-02-16T04:01:23;17.52;;;16.33;;
17864;SDS011;9058;52.018;4.202;2024-02-16T04:03:50;20.75;;;19.52;;
17864;SDS011;9058;52.018;4.202;2024-02-16T04:06:18;19.55;;;18.45;;
17864;SDS011;9058;52.018;4.202;2024-02-16T04:08:44;18.48;;;17.38;;
17864;SDS011;9058;52.018;4.202;2024-02-16T04:11:13;20.00;;;18.88;;
17864;SDS011;9058;52.018;4.202;2024-02-16T04:13:40;19.63;;;18.42;;
17864;SDS011;9058;52.018;4.202;2024-02-16T04:16:06;20.77;;;19.52;;
17864;SDS011;9058;52.018;4.202;2024-02-16T04:18:33;20.40;;;19.10;;
17864;SDS011;9058;52.018;4.202;2024-02-16T04:21:00;18.88;;;17.77;;
17864;SDS011;9058;52.018;4.202;2024-02-16T04:23:28;21.98;;;20.17;;
17864;SDS011;9058;52.018;4.202;2024-02-16T04:25:54;19.27;;;17.92;;
17864;SDS011;9058;52.018;4.202;2024-02-16T04:28:21;21.77;;;20.58;;
17864;SDS011;9058;52.018;4.202;2024-02-16T04:30:47;20.15;;;18.95;;
17864;SDS011;9058;52.018;4.202;2024-02-16T04:33:13;20.27;;;18.90;;
17864;SDS011;9058;52.018;4.202;2024-02-16T04:35:40;18.83;;;17.70;;
17864;SDS011;9058;52.018;4.202;2024-02-16T04:38:06;19.58;;;18.38;;
17864;SDS011;9058;52.018;4.202;2024-02-16T04:40:35;20.63;;;19.35;;
17864;SDS011;9058;52.018;4.202;2024-02-16T04:43:02;20.08;;;18.88;;
17864;SDS011;9058;52.018;4.202;2024-02-16T04:45:28;21.13;;;19.60;;
17864;SDS011;9058;52.018;4.202;2024-02-16T04:47:55;19.92;;;18.73;;
17864;SDS011;9058;52.018;4.202;2024-02-16T04:50:24;20.15;;;18.83;;
17864;SDS011;9058;52.018;4.202;2024-02-16T04:52:50;19.48;;;18.27;;
17864;SDS011;9058;52.018;4.202;2024-02-16T04:55:16;20.25;;;18.83;;
17864;SDS011;9058;52.018;4.202;2024-02-16T04:57:47;18.90;;;17.48;;
17864;SDS011;9058;52.018;4.202;2024-02-16T05:00:13;19.83;;;18.20;;
17864;SDS011;9058;52.018;4.202;2024-02-16T05:02:40;17.88;;;16.52;;
17864;SDS011;9058;52.018;4.202;2024-02-16T05:05:06;17.83;;;16.73;;
17864;SDS011;9058;52.018;4.202;2024-02-16T05:07:33;18.60;;;17.60;;
17864;SDS011;9058;52.018;4.202;2024-02-16T05:10:01;18.50;;;17.30;;
17864;SDS011;9058;52.018;4.202;2024-02-16T05:12:27;19.05;;;17.88;;
17864;SDS011;9058;52.018;4.202;2024-02-16T05:14:56;20.05;;;18.95;;
17864;SDS011;9058;52.018;4.202;2024-02-16T05:17:22;19.92;;;18.75;;
17864;SDS011;9058;52.018;4.202;2024-02-16T05:19:50;17.88;;;16.65;;
17864;SDS011;9058;52.018;4.202;2024-02-16T05:22:16;19.67;;;18.15;;
17864;SDS011;9058;52.018;4.202;2024-02-16T05:24:44;19.13;;;18.02;;
17864;SDS011;9058;52.018;4.202;2024-02-16T05:27:11;19.15;;;17.88;;
17864;SDS011;9058;52.018;4.202;2024-02-16T05:29:38;20.27;;;19.05;;
17864;SDS011;9058;52.018;4.202;2024-02-16T05:32:06;19.40;;;18.13;;
17864;SDS011;9058;52.018;4.202;2024-02-16T05:34:32;20.48;;;19.33;;
17864;SDS011;9058;52.018;4.202;2024-02-16T05:37:02;19.10;;;17.95;;
17864;SDS011;9058;52.018;4.202;2024-02-16T05:39:29;18.90;;;17.63;;
17864;SDS011;9058;52.018;4.202;2024-02-16T05:41:56;20.35;;;19.25;;
17864;SDS011;9058;52.018;4.202;2024-02-16T05:44:23;20.85;;;19.65;;
17864;SDS011;9058;52.018;4.202;2024-02-16T05:46:49;19.92;;;18.73;;
17864;SDS011;9058;52.018;4.202;2024-02-16T05:49:18;19.38;;;18.13;;
17864;SDS011;9058;52.018;4.202;2024-02-16T05:51:45;19.20;;;18.00;;
17864;SDS011;9058;52.018;4.202;2024-02-16T05:54:31;20.30;;;19.08;;
17864;SDS011;9058;52.018;4.202;2024-02-16T05:56:56;19.70;;;18.48;;
17864;SDS011;9058;52.018;4.202;2024-02-16T05:59:23;20.23;;;18.67;;
17864;SDS011;9058;52.018;4.202;2024-02-16T06:01:50;18.85;;;17.75;;
17864;SDS011;9058;52.018;4.202;2024-02-16T06:04:18;18.98;;;17.77;;
17864;SDS011;9058;52.018;4.202;2024-02-16T06:06:44;19.77;;;18.67;;
17864;SDS011;9058;52.018;4.202;2024-02-16T06:09:10;20.25;;;18.95;;
17864;SDS011;9058;52.018;4.202;2024-02-16T06:11:37;19.08;;;18.02;;
17864;SDS011;9058;52.018;4.202;2024-02-16T06:14:04;19.17;;;17.98;;
17864;SDS011;9058;52.018;4.202;2024-02-16T06:16:31;18.65;;;17.45;;
17864;SDS011;9058;52.018;4.202;2024-02-16T06:18:58;17.90;;;16.90;;
17864;SDS011;9058;52.018;4.202;2024-02-16T06:21:26;18.85;;;17.65;;
17864;SDS011;9058;52.018;4.202;2024-02-16T06:23:52;19.35;;;17.88;;
17864;SDS011;9058;52.018;4.202;2024-02-16T06:26:19;19.52;;;18.38;;
17864;SDS011;9058;52.018;4.202;2024-02-16T06:28:45;19.45;;;17.75;;
17864;SDS011;9058;52.018;4.202;2024-02-16T06:31:12;19.13;;;18.13;;
17864;SDS011;9058;52.018;4.202;2024-02-16T06:33:39;19.25;;;17.98;;
17864;SDS011;9058;52.018;4.202;2024-02-16T06:36:06;17.70;;;16.40;;
17864;SDS011;9058;52.018;4.202;2024-02-16T06:38:35;19.98;;;18.98;;
17864;SDS011;9058;52.018;4.202;2024-02-16T06:41:02;18.98;;;17.88;;
17864;SDS011;9058;52.018;4.202;2024-02-16T06:43:29;18.20;;;17.20;;
17864;SDS011;9058;52.018;4.202;2024-02-16T06:45:55;18.98;;;17.58;;
17864;SDS011;9058;52.018;4.202;2024-02-16T06:48:23;19.27;;;18.08;;
17864;SDS011;9058;52.018;4.202;2024-02-16T06:50:49;17.52;;;16.35;;
17864;SDS011;9058;52.018;4.202;2024-02-16T06:53:16;16.98;;;15.95;;
17864;SDS011;9058;52.018;4.202;2024-02-16T06:55:43;17.70;;;16.58;;
17864;SDS011;9058;52.018;4.202;2024-02-16T06:58:10;19.48;;;18.25;;
17864;SDS011;9058;52.018;4.202;2024-02-16T07:00:36;17.98;;;16.85;;
17864;SDS011;9058;52.018;4.202;2024-02-16T07:03:03;18.38;;;17.15;;
17864;SDS011;9058;52.018;4.202;2024-02-16T07:05:29;20.30;;;19.00;;
17864;SDS011;9058;52.018;4.202;2024-02-16T07:07:57;20.00;;;18.55;;
17864;SDS011;9058;52.018;4.202;2024-02-16T07:10:25;18.27;;;17.17;;
17864;SDS011;9058;52.018;4.202;2024-02-16T07:12:53;17.35;;;16.23;;
17864;SDS011;9058;52.018;4.202;2024-02-16T07:15:20;20.42;;;18.90;;
17864;SDS011;9058;52.018;4.202;2024-02-16T07:17:46;18.67;;;17.50;;
17864;SDS011;9058;52.018;4.202;2024-02-16T07:20:14;17.00;;;16.00;;
17864;SDS011;9058;52.018;4.202;2024-02-16T07:22:41;17.48;;;16.25;;
17864;SDS011;9058;52.018;4.202;2024-02-16T07:25:08;20.20;;;18.95;;
17864;SDS011;9058;52.018;4.202;2024-02-16T07:27:37;18.60;;;16.98;;
17864;SDS011;9058;52.018;4.202;2024-02-16T07:30:06;18.15;;;16.88;;
17864;SDS011;9058;52.018;4.202;2024-02-16T07:32:33;18.02;;;16.58;;
17864;SDS011;9058;52.018;4.202;2024-02-16T07:34:59;17.17;;;16.13;;
17864;SDS011;9058;52.018;4.202;2024-02-16T07:37:28;17.83;;;16.77;;
17864;SDS011;9058;52.018;4.202;2024-02-16T07:39:55;18.50;;;17.27;;
17864;SDS011;9058;52.018;4.202;2024-02-16T07:42:21;17.85;;;16.55;;
17864;SDS011;9058;52.018;4.202;2024-02-16T07:44:47;16.67;;;15.55;;
17864;SDS011;9058;52.018;4.202;2024-02-16T07:47:18;18.13;;;16.77;;
17864;SDS011;9058;52.018;4.202;2024-02-16T07:49:44;17.45;;;16.38;;
17864;SDS011;9058;52.018;4.202;2024-02-16T07:52:10;16.10;;;14.95;;
17864;SDS011;9058;52.018;4.202;2024-02-16T07:54:38;17.00;;;15.82;;
17864;SDS011;9058;52.018;4.202;2024-02-16T07:57:06;18.20;;;17.13;;
17864;SDS011;9058;52.018;4.202;2024-02-16T07:59:35;18.02;;;16.83;;
17864;SDS011;9058;52.018;4.202;2024-02-16T08:02:01;18.40;;;17.10;;
17864;SDS011;9058;52.018;4.202;2024-02-16T08:04:30;17.50;;;16.52;;
17864;SDS011;9058;52.018;4.202;2024-02-16T08:06:57;19.42;;;17.70;;
17864;SDS011;9058;52.018;4.202;2024-02-16T08:09:23;18.50;;;17.35;;
17864;SDS011;9058;52.018;4.202;2024-02-16T08:11:50;19.75;;;18.45;;
17864;SDS011;9058;52.018;4.202;2024-02-16T08:14:16;19.15;;;17.75;;
17864;SDS011;9058;52.018;4.202;2024-02-16T08:16:43;18.73;;;17.45;;
17864;SDS011;9058;52.018;4.202;2024-02-16T08:19:09;19.75;;;18.35;;
17864;SDS011;9058;52.018;4.202;2024-02-16T08:21:37;19.90;;;18.45;;
17864;SDS011;9058;52.018;4.202;2024-02-16T08:24:03;20.00;;;18.52;;
17864;SDS011;9058;52.018;4.202;2024-02-16T08:26:30;20.92;;;19.60;;
17864;SDS011;9058;52.018;4.202;2024-02-16T08:28:57;22.23;;;20.70;;
17864;SDS011;9058;52.018;4.202;2024-02-16T08:31:24;21.63;;;20.00;;
17864;SDS011;9058;52.018;4.202;2024-02-16T08:33:52;18.05;;;17.02;;
17864;SDS011;9058;52.018;4.202;2024-02-16T08:36:18;18.48;;;17.08;;
17864;SDS011;9058;52.018;4.202;2024-02-16T08:38:47;20.05;;;18.52;;
17864;SDS011;9058;52.018;4.202;2024-02-16T08:41:14;20.77;;;19.25;;
17864;SDS011;9058;52.018;4.202;2024-02-16T08:43:42;21.15;;;19.38;;
17864;SDS011;9058;52.018;4.202;2024-02-16T08:46:09;22.70;;;21.20;;
17864;SDS011;9058;52.018;4.202;2024-02-16T08:48:35;22.17;;;20.23;;
17864;SDS011;9058;52.018;4.202;2024-02-16T08:51:03;23.50;;;21.60;;
17864;SDS011;9058;52.018;4.202;2024-02-16T08:53:31;22.60;;;21.10;;
17864;SDS011;9058;52.018;4.202;2024-02-16T08:56:01;22.60;;;20.88;;
17864;SDS011;9058;52.018;4.202;2024-02-16T08:58:28;21.60;;;19.90;;
17864;SDS011;9058;52.018;4.202;2024-02-16T09:00:54;23.30;;;21.42;;
17864;SDS011;9058;52.018;4.202;2024-02-16T09:03:21;24.20;;;22.52;;
17864;SDS011;9058;52.018;4.202;2024-02-16T09:05:47;24.17;;;21.98;;
17864;SDS011;9058;52.018;4.202;2024-02-16T09:08:13;27.30;;;24.88;;
17864;SDS011;9058;52.018;4.202;2024-02-16T09:10:40;27.48;;;24.67;;
17864;SDS011;9058;52.018;4.202;2024-02-16T09:13:07;27.17;;;24.33;;
17864;SDS011;9058;52.018;4.202;2024-02-16T09:15:34;30.75;;;27.67;;
17864;SDS011;9058;52.018;4.202;2024-02-16T09:18:01;28.25;;;24.73;;
17864;SDS011;9058;52.018;4.202;2024-02-16T09:20:29;28.08;;;23.88;;
17864;SDS011;9058;52.018;4.202;2024-02-16T09:22:55;29.90;;;26.05;;
17864;SDS011;9058;52.018;4.202;2024-02-16T09:25:21;32.03;;;26.05;;
17864;SDS011;9058;52.018;4.202;2024-02-16T09:27:48;32.55;;;26.70;;
17864;SDS011;9058;52.018;4.202;2024-02-16T09:30:16;34.08;;;26.73;;
17864;SDS011;9058;52.018;4.202;2024-02-16T09:32:42;29.40;;;26.10;;
17864;SDS011;9058;52.018;4.202;2024-02-16T09:35:08;35.03;;;28.77;;
17864;SDS011;9058;52.018;4.202;2024-02-16T09:37:38;29.27;;;26.00;;
17864;SDS011;9058;52.018;4.202;2024-02-16T09:40:05;30.73;;;27.42;;
17864;SDS011;9058;52.018;4.202;2024-02-16T09:42:33;28.80;;;19.67;;
17864;SDS011;9058;52.018;4.202;2024-02-16T09:45:03;26.60;;;19.98;;
17864;SDS011;9058;52.018;4.202;2024-02-16T09:47:31;24.75;;;20.60;;
17864;SDS011;9058;52.018;4.202;2024-02-16T09:49:59;20.55;;;17.60;;
17864;SDS011;9058;52.018;4.202;2024-02-16T09:52:26;22.88;;;17.38;;
17864;SDS011;9058;52.018;4.202;2024-02-16T09:54:52;20.23;;;16.65;;
17864;SDS011;9058;52.018;4.202;2024-02-16T09:57:18;21.55;;;15.80;;
17864;SDS011;9058;52.018;4.202;2024-02-16T09:59:45;19.23;;;15.05;;
17864;SDS011;9058;52.018;4.202;2024-02-16T10:02:12;20.15;;;16.08;;
17864;SDS011;9058;52.018;4.202;2024-02-16T10:04:40;17.15;;;15.05;;
17864;SDS011;9058;52.018;4.202;2024-02-16T10:07:06;19.30;;;16.00;;
17864;SDS011;9058;52.018;4.202;2024-02-16T10:09:33;17.25;;;13.65;;
17864;SDS011;9058;52.018;4.202;2024-02-16T10:11:59;18.30;;;14.27;;
17864;SDS011;9058;52.018;4.202;2024-02-16T10:14:25;25.17;;;15.95;;
17864;SDS011;9058;52.018;4.202;2024-02-16T10:16:59;20.63;;;15.40;;
17864;SDS011;9058;52.018;4.202;2024-02-16T10:19:27;27.83;;;16.92;;
17864;SDS011;9058;52.018;4.202;2024-02-16T10:22:06;25.27;;;17.05;;
17864;SDS011;9058;52.018;4.202;2024-02-16T10:24:32;24.75;;;16.13;;
17864;SDS011;9058;52.018;4.202;2024-02-16T10:26:59;24.55;;;17.10;;
17864;SDS011;9058;52.018;4.202;2024-02-16T10:29:25;20.33;;;15.70;;
17864;SDS011;9058;52.018;4.202;2024-02-16T10:31:53;19.98;;;16.08;;
17864;SDS011;9058;52.018;4.202;2024-02-16T10:34:21;23.27;;;16.10;;
17864;SDS011;9058;52.018;4.202;2024-02-16T10:36:50;19.90;;;14.75;;
17864;SDS011;9058;52.018;4.202;2024-02-16T10:39:18;18.88;;;13.82;;
17864;SDS011;9058;52.018;4.202;2024-02-16T10:41:45;23.00;;;14.30;;
17864;SDS011;9058;52.018;4.202;2024-02-16T10:44:14;22.15;;;13.50;;
17864;SDS011;9058;52.018;4.202;2024-02-16T10:46:40;22.90;;;14.65;;
17864;SDS011;9058;52.018;4.202;2024-02-16T10:49:07;20.23;;;13.60;;
17864;SDS011;9058;52.018;4.202;2024-02-16T10:51:35;21.17;;;14.02;;
17864;SDS011;9058;52.018;4.202;2024-02-16T10:54:03;23.30;;;14.38;;
17864;SDS011;9058;52.018;4.202;2024-02-16T10:56:34;28.38;;;15.13;;
17864;SDS011;9058;52.018;4.202;2024-02-16T10:59:02;20.27;;;13.15;;
17864;SDS011;9058;52.018;4.202;2024-02-16T11:01:31;19.48;;;13.20;;
17864;SDS011;9058;52.018;4.202;2024-02-16T11:04:00;18.52;;;13.30;;
17864;SDS011;9058;52.018;4.202;2024-02-16T11:06:27;22.13;;;14.15;;
17864;SDS011;9058;52.018;4.202;2024-02-16T11:08:53;18.80;;;12.68;;
17864;SDS011;9058;52.018;4.202;2024-02-16T11:11:22;15.25;;;11.70;;
17864;SDS011;9058;52.018;4.202;2024-02-16T11:13:53;15.85;;;11.88;;
17864;SDS011;9058;52.018;4.202;2024-02-16T11:16:20;18.88;;;12.23;;
17864;SDS011;9058;52.018;4.202;2024-02-16T11:18:47;18.75;;;12.07;;
17864;SDS011;9058;52.018;4.202;2024-02-16T11:21:16;16.63;;;12.05;;
17864;SDS011;9058;52.018;4.202;2024-02-16T11:23:42;18.80;;;12.68;;
17864;SDS011;9058;52.018;4.202;2024-02-16T11:26:09;18.65;;;13.23;;
17864;SDS011;9058;52.018;4.202;2024-02-16T11:28:36;17.45;;;12.18;;
17864;SDS011;9058;52.018;4.202;2024-02-16T11:31:05;15.77;;;13.60;;
17864;SDS011;9058;52.018;4.202;2024-02-16T11:33:32;14.88;;;12.25;;
17864;SDS011;9058;52.018;4.202;2024-02-16T11:35:59;20.25;;;13.20;;
17864;SDS011;9058;52.018;4.202;2024-02-16T11:38:26;14.90;;;12.98;;
17864;SDS011;9058;52.018;4.202;2024-02-16T11:40:53;18.88;;;12.32;;
17864;SDS011;9058;52.018;4.202;2024-02-16T11:43:19;20.40;;;12.18;;
17864;SDS011;9058;52.018;4.202;2024-02-16T11:45:46;16.70;;;11.75;;
17864;SDS011;9058;52.018;4.202;2024-02-16T11:48:18;14.45;;;11.70;;
17864;SDS011;9058;52.018;4.202;2024-02-16T11:50:45;17.70;;;11.75;;
17864;SDS011;9058;52.018;4.202;2024-02-16T11:53:14;14.45;;;11.40;;
17864;SDS011;9058;52.018;4.202;2024-02-16T11:55:45;13.23;;;11.68;;
17864;SDS011;9058;52.018;4.202;2024-02-16T11:58:12;18.85;;;11.90;;
17864;SDS011;9058;52.018;4.202;2024-02-16T12:00:39;17.83;;;11.80;;
17864;SDS011;9058;52.018;4.202;2024-02-16T12:03:06;15.98;;;12.73;;
17864;SDS011;9058;52.018;4.202;2024-02-16T12:05:34;20.23;;;12.63;;
17864;SDS011;9058;52.018;4.202;2024-02-16T12:08:00;21.73;;;14.95;;
17864;SDS011;9058;52.018;4.202;2024-02-16T12:10:27;14.68;;;13.05;;
17864;SDS011;9058;52.018;4.202;2024-02-16T12:12:53;12.80;;;11.63;;
17864;SDS011;9058;52.018;4.202;2024-02-16T12:15:21;17.05;;;11.50;;
17864;SDS011;9058;52.018;4.202;2024-02-16T12:17:57;16.58;;;12.00;;
17864;SDS011;9058;52.018;4.202;2024-02-16T12:20:24;13.18;;;11.98;;
17864;SDS011;9058;52.018;4.202;2024-02-16T12:22:51;16.90;;;13.13;;
17864;SDS011;9058;52.018;4.202;2024-02-16T12:25:18;12.55;;;11.55;;
17864;SDS011;9058;52.018;4.202;2024-02-16T12:27:44;18.95;;;11.90;;
17864;SDS011;9058;52.018;4.202;2024-02-16T12:30:11;13.07;;;11.57;;
17864;SDS011;9058;52.018;4.202;2024-02-16T12:32:37;12.85;;;11.55;;
17864;SDS011;9058;52.018;4.202;2024-02-16T12:35:05;14.35;;;13.30;;
17864;SDS011;9058;52.018;4.202;2024-02-16T12:37:32;13.85;;;12.65;;
17864;SDS011;9058;52.018;4.202;2024-02-16T12:40:01;16.00;;;14.50;;
17864;SDS011;9058;52.018;4.202;2024-02-16T12:42:27;14.48;;;13.23;;
17864;SDS011;9058;52.018;4.202;2024-02-16T12:44:54;14.02;;;12.93;;
17864;SDS011;9058;52.018;4.202;2024-02-16T12:47:20;13.15;;;12.00;;
17864;SDS011;9058;52.018;4.202;2024-02-16T12:49:47;12.50;;;11.48;;
17864;SDS011;9058;52.018;4.202;2024-02-16T12:52:19;13.05;;;12.10;;
17864;SDS011;9058;52.018;4.202;2024-02-16T12:54:47;10.70;;;10.10;;
17864;SDS011;9058;52.018;4.202;2024-02-16T12:57:15;10.82;;;9.57;;
17864;SDS011;9058;52.018;4.202;2024-02-16T12:59:41;11.25;;;10.48;;
17864;SDS011;9058;52.018;4.202;2024-02-16T13:02:08;13.20;;;11.95;;
17864;SDS011;9058;52.018;4.202;2024-02-16T13:04:34;13.60;;;12.40;;
17864;SDS011;9058;52.018;4.202;2024-02-16T13:07:00;11.10;;;10.10;;
17864;SDS011;9058;52.018;4.202;2024-02-16T13:09:27;12.05;;;10.98;;
17864;SDS011;9058;52.018;4.202;2024-02-16T13:11:54;13.90;;;12.65;;
17864;SDS011;9058;52.018;4.202;2024-02-16T13:14:23;13.23;;;12.15;;
17864;SDS011;9058;52.018;4.202;2024-02-16T13:16:49;14.38;;;13.02;;
17864;SDS011;9058;52.018;4.202;2024-02-16T13:19:16;13.43;;;11.40;;
17864;SDS011;9058;52.018;4.202;2024-02-16T13:21:43;12.52;;;11.43;;
17864;SDS011;9058;52.018;4.202;2024-02-16T13:24:09;12.40;;;11.02;;
17864;SDS011;9058;52.018;4.202;2024-02-16T13:26:36;12.18;;;10.65;;
17864;SDS011;9058;52.018;4.202;2024-02-16T13:29:02;11.43;;;10.25;;
17864;SDS011;9058;52.018;4.202;2024-02-16T13:31:30;10.35;;;9.38;;
17864;SDS011;9058;52.018;4.202;2024-02-16T13:33:58;9.75;;;8.95;;
17864;SDS011;9058;52.018;4.202;2024-02-16T13:36:26;11.60;;;10.48;;
17864;SDS011;9058;52.018;4.202;2024-02-16T13:38:52;12.20;;;9.10;;
17864;SDS011;9058;52.018;4.202;2024-02-16T13:41:18;13.07;;;8.68;;
17864;SDS011;9058;52.018;4.202;2024-02-16T13:43:45;12.05;;;9.70;;
17864;SDS011;9058;52.018;4.202;2024-02-16T13:46:11;9.73;;;8.75;;
17864;SDS011;9058;52.018;4.202;2024-02-16T13:48:39;11.35;;;10.15;;
17864;SDS011;9058;52.018;4.202;2024-02-16T13:51:06;11.48;;;9.80;;
17864;SDS011;9058;52.018;4.202;2024-02-16T13:53:33;10.48;;;9.65;;
17864;SDS011;9058;52.018;4.202;2024-02-16T13:55:59;9.77;;;8.88;;
17864;SDS011;9058;52.018;4.202;2024-02-16T13:58:29;14.32;;;10.15;;
17864;SDS011;9058;52.018;4.202;2024-02-16T14:00:55;12.82;;;11.73;;
17864;SDS011;9058;52.018;4.202;2024-02-16T14:03:22;10.85;;;9.85;;
17864;SDS011;9058;52.018;4.202;2024-02-16T14:05:51;11.15;;;10.23;;
17864;SDS011;9058;52.018;4.202;2024-02-16T14:08:19;11.02;;;8.55;;
17864;SDS011;9058;52.018;4.202;2024-02-16T14:10:45;10.52;;;9.50;;
17864;SDS011;9058;52.018;4.202;2024-02-16T14:13:12;8.18;;;7.63;;
17864;SDS011;9058;52.018;4.202;2024-02-16T14:15:41;9.00;;;8.27;;
17864;SDS011;9058;52.018;4.202;2024-02-16T14:18:08;11.63;;;9.27;;
17864;SDS011;9058;52.018;4.202;2024-02-16T14:20:34;8.40;;;7.72;;
17864;SDS011;9058;52.018;4.202;2024-02-16T14:23:02;6.70;;;6.13;;
17864;SDS011;9058;52.018;4.202;2024-02-16T14:25:28;9.98;;;8.30;;
17864;SDS011;9058;52.018;4.202;2024-02-16T14:27:55;8.48;;;7.78;;
17864;SDS011;9058;52.018;4.202;2024-02-16T14:30:21;8.73;;;8.00;;
17864;SDS011;9058;52.018;4.202;2024-02-16T14:32:47;11.73;;;10.68;;
17864;SDS011;9058;52.018;4.202;2024-02-16T14:35:14;11.32;;;10.35;;